Time;durP1;ratioP1;P1;durP2;ratioP2;P2;SDS_P1;SDS_P2;PMS_P1;PMS_P2;Temp;Humidity;BMP_temperature;BMP_pressure;BME280_temperature;BME280_humidity;BME280_pressure;Samples;Min_cycle;Max_cycle;Signal;HPM_P1;HPM_P2
2022/03/22 00:00:39;;;;;;;15.23;13.73;;;;;;;;;;6160599;28;20258;-73
2022/03/22 00:04:02;;;;;;;16.50;15.00;;;;;;;;;;6167506;28;20238;-74
2022/03/22 00:07:23;;;;;;;14.53;13.23;;;;;;;;;;6166622;28;20225;-74
2022/03/22 00:10:44;;;;;;;15.00;13.50;;;;;;;;;;6160017;28;20235;-73
2022/03/22 00:14:08;;;;;;;16.20;14.70;;;;;;;;;;6158091;28;20223;-74
2022/03/22 00:17:29;;;;;;;16.80;15.17;;;;;;;;;;6157857;28;20230;-73
2022/03/22 00:20:50;;;;;;;15.10;13.70;;;;;;;;;;6153755;28;20239;-73
2022/03/22 00:24:11;;;;;;;15.30;13.93;;;;;;;;;;6158136;28;20246;-73
2022/03/22 00:27:50;;;;;;;18.13;16.30;;;;;;;;;;6154262;28;20238;-74
2022/03/22 00:31:12;;;;;;;14.90;13.27;;;;;;;;;;6140530;28;20231;-74
2022/03/22 00:34:33;;;;;;;14.90;13.60;;;;;;;;;;6155345;28;20229;-74
2022/03/22 00:37:56;;;;;;;15.10;13.60;;;;;;;;;;6155963;28;21749;-73
2022/03/22 00:41:18;;;;;;;17.63;15.93;;;;;;;;;;6154074;28;20317;-74
2022/03/22 00:44:39;;;;;;;14.23;12.93;;;;;;;;;;6158632;28;20242;-73
2022/03/22 00:48:03;;;;;;;18.40;15.10;;;;;;;;;;6158970;28;20222;-73
2022/03/22 00:51:24;;;;;;;13.37;11.67;;;;;;;;;;6156162;28;20660;-74
2022/03/22 00:54:45;;;;;;;18.30;16.07;;;;;;;;;;6156751;28;20254;-74
2022/03/22 00:58:06;;;;;;;14.73;13.33;;;;;;;;;;6153937;28;20254;-74
2022/03/22 01:01:27;;;;;;;16.50;15.00;;;;;;;;;;6115065;28;1098606;-74
2022/03/22 01:04:49;;;;;;;15.63;14.17;;;;;;;;;;6159569;28;20650;-74
2022/03/22 01:08:12;;;;;;;15.10;13.50;;;;;;;;;;6162229;28;20223;-73
2022/03/22 01:11:33;;;;;;;17.20;15.37;;;;;;;;;;6156110;28;20227;-72
2022/03/22 01:14:55;;;;;;;17.47;15.33;;;;;;;;;;6157198;28;20318;-73
2022/03/22 01:18:16;;;;;;;15.20;13.73;;;;;;;;;;6157529;28;20227;-73
2022/03/22 01:21:39;;;;;;;15.93;14.53;;;;;;;;;;6160082;28;20235;-74
2022/03/22 01:25:00;;;;;;;13.53;12.33;;;;;;;;;;6158575;28;20325;-73
2022/03/22 01:28:20;;;;;;;14.77;13.27;;;;;;;;;;6157410;28;20234;-73
2022/03/22 01:31:41;;;;;;;14.67;13.27;;;;;;;;;;6126489;28;20683;-74
2022/03/22 01:35:02;;;;;;;15.07;13.67;;;;;;;;;;6154313;28;20234;-74
2022/03/22 01:38:25;;;;;;;16.23;14.67;;;;;;;;;;6152770;28;20234;-72
2022/03/22 01:41:45;;;;;;;12.77;11.47;;;;;;;;;;6155106;28;20230;-74
2022/03/22 01:45:07;;;;;;;13.33;12.03;;;;;;;;;;6151414;28;20245;-73
2022/03/22 01:48:28;;;;;;;14.27;12.37;;;;;;;;;;6156593;28;20246;-74
2022/03/22 01:51:51;;;;;;;14.23;12.93;;;;;;;;;;6158789;28;20234;-73
2022/03/22 01:55:15;;;;;;;13.23;12.03;;;;;;;;;;6162876;28;20254;-74
2022/03/22 01:58:36;;;;;;;15.10;12.90;;;;;;;;;;6161924;28;20317;-73
2022/03/22 02:05:52;;;;;;;14.63;12.53;;;;;;;;;;6151964;28;20317;-73
2022/03/22 02:09:13;;;;;;;13.53;12.27;;;;;;;;;;6157753;28;20245;-73
2022/03/22 02:12:36;;;;;;;13.80;12.03;;;;;;;;;;6161477;28;20231;-72
2022/03/22 02:15:59;;;;;;;14.53;13.03;;;;;;;;;;6157097;28;20223;-74
2022/03/22 02:19:21;;;;;;;13.97;12.57;;;;;;;;;;6162575;28;20238;-74
2022/03/22 02:22:47;;;;;;;15.07;13.63;;;;;;;;;;6162786;28;20226;-73
2022/03/22 02:26:09;;;;;;;13.93;12.63;;;;;;;;;;6160942;28;20235;-73
2022/03/22 02:29:30;;;;;;;13.13;11.93;;;;;;;;;;6155625;28;20242;-74
2022/03/22 02:32:53;;;;;;;14.07;12.63;;;;;;;;;;6160983;28;20273;-73
2022/03/22 02:36:14;;;;;;;13.90;12.57;;;;;;;;;;6165799;28;21966;-73
2022/03/22 02:39:35;;;;;;;13.33;12.03;;;;;;;;;;6160278;28;20265;-73
2022/03/22 02:43:01;;;;;;;13.53;12.10;;;;;;;;;;6160350;28;20226;-73
2022/03/22 02:46:22;;;;;;;12.87;11.57;;;;;;;;;;6159958;28;20242;-73
2022/03/22 02:49:43;;;;;;;14.73;13.33;;;;;;;;;;6159797;28;20238;-72
2022/03/22 02:53:04;;;;;;;16.00;14.27;;;;;;;;;;6162283;28;20222;-71
2022/03/22 02:56:26;;;;;;;13.60;12.40;;;;;;;;;;6162399;28;20734;-72
2022/03/22 02:59:49;;;;;;;14.00;12.47;;;;;;;;;;6160136;28;20234;-73
2022/03/22 03:03:09;;;;;;;14.53;13.13;;;;;;;;;;6159826;28;20509;-72
2022/03/22 03:06:30;;;;;;;13.90;12.67;;;;;;;;;;6159561;28;20231;-72
2022/03/22 03:09:51;;;;;;;15.07;12.33;;;;;;;;;;6159993;28;20616;-73
2022/03/22 03:13:13;;;;;;;14.83;13.27;;;;;;;;;;6162839;28;20244;-73
2022/03/22 03:16:35;;;;;;;14.27;12.97;;;;;;;;;;6160622;28;20243;-73
2022/03/22 03:19:57;;;;;;;14.20;12.87;;;;;;;;;;6160851;28;20636;-72
2022/03/22 03:23:18;;;;;;;18.07;13.10;;;;;;;;;;6161827;28;20337;-73
2022/03/22 03:26:39;;;;;;;14.47;13.00;;;;;;;;;;6156808;28;20272;-74
2022/03/22 03:30:00;;;;;;;13.73;12.17;;;;;;;;;;6157479;28;20238;-72
2022/03/22 03:33:23;;;;;;;15.30;13.77;;;;;;;;;;6160176;28;20539;-73
2022/03/22 03:36:44;;;;;;;14.20;12.77;;;;;;;;;;6137437;28;20313;-73
2022/03/22 03:40:06;;;;;;;14.80;13.43;;;;;;;;;;6164207;28;20242;-73
2022/03/22 03:43:27;;;;;;;14.13;12.63;;;;;;;;;;6160220;28;20522;-73
2022/03/22 03:47:07;;;;;;;14.73;13.37;;;;;;;;;;6160569;28;20226;-73
2022/03/22 03:50:29;;;;;;;13.67;12.33;;;;;;;;;;6150971;28;20336;-73
2022/03/22 03:53:50;;;;;;;15.27;13.83;;;;;;;;;;6160001;28;20672;-73
2022/03/22 03:57:11;;;;;;;14.93;13.53;;;;;;;;;;6159663;28;20243;-73
2022/03/22 04:00:32;;;;;;;13.73;12.53;;;;;;;;;;6159403;28;21287;-73
2022/03/22 04:03:52;;;;;;;15.17;13.73;;;;;;;;;;6160342;28;22335;-72
2022/03/22 04:07:16;;;;;;;15.10;13.70;;;;;;;;;;6163359;28;20242;-73
2022/03/22 04:10:37;;;;;;;14.83;13.53;;;;;;;;;;6159990;28;20238;-73
2022/03/22 04:13:58;;;;;;;14.07;12.70;;;;;;;;;;6159048;28;20526;-73
2022/03/22 04:17:21;;;;;;;15.17;13.57;;;;;;;;;;6160877;28;20656;-74
2022/03/22 04:20:42;;;;;;;19.37;17.37;;;;;;;;;;6148871;28;20257;-73
2022/03/22 04:24:06;;;;;;;15.07;13.60;;;;;;;;;;6161657;28;21177;-73
2022/03/22 04:34:45;;;;;;;14.90;12.43;;;;;;;;;;6162135;28;20345;-73
2022/03/22 04:38:05;;;;;;;14.70;13.20;;;;;;;;;;6160021;28;20234;-73
2022/03/22 04:41:28;;;;;;;15.97;14.17;;;;;;;;;;6156813;28;20234;-74
2022/03/22 04:44:50;;;;;;;13.33;11.93;;;;;;;;;;6158350;28;20628;-73
2022/03/22 04:48:11;;;;;;;15.53;14.03;;;;;;;;;;6159442;28;20237;-73
2022/03/22 04:58:52;;;;;;;15.90;14.27;;;;;;;;;;6157779;28;20322;-73
2022/03/22 05:02:13;;;;;;;15.43;13.83;;;;;;;;;;6151230;28;20234;-73
2022/03/22 05:09:13;;;;;;;23.07;20.77;;;;;;;;;;6157815;28;20234;-75
2022/03/22 05:12:37;;;;;;;25.00;22.40;;;;;;;;;;6156331;28;20616;-73
2022/03/22 05:15:59;;;;;;;28.00;25.10;;;;;;;;;;6155301;28;20227;-74
2022/03/22 05:19:20;;;;;;;26.17;23.47;;;;;;;;;;6157890;28;20230;-74
2022/03/22 05:22:42;;;;;;;29.67;20.83;;;;;;;;;;6159553;28;20321;-73
2022/03/22 05:26:03;;;;;;;22.97;20.53;;;;;;;;;;6155011;28;20234;-74
2022/03/22 05:29:25;;;;;;;25.17;21.27;;;;;;;;;;6158744;28;20258;-73
2022/03/22 05:32:46;;;;;;;18.80;16.83;;;;;;;;;;6159262;28;20238;-75
2022/03/22 05:36:08;;;;;;;17.33;15.63;;;;;;;;;;6156239;28;20495;-73
2022/03/22 05:39:30;;;;;;;17.57;15.80;;;;;;;;;;6158967;28;20258;-74
2022/03/22 05:42:51;;;;;;;28.03;25.23;;;;;;;;;;6156402;28;20227;-73
2022/03/22 05:46:15;;;;;;;19.80;16.87;;;;;;;;;;6151387;28;20242;-73
2022/03/22 05:49:38;;;;;;;15.90;14.23;;;;;;;;;;6153710;28;20226;-75
2022/03/22 05:53:00;;;;;;;16.10;14.40;;;;;;;;;;6157964;28;20231;-73
2022/03/22 05:56:21;;;;;;;14.83;13.33;;;;;;;;;;6140819;28;20846;-74
2022/03/22 05:59:42;;;;;;;16.67;14.73;;;;;;;;;;6155998;28;20846;-74
2022/03/22 06:03:03;;;;;;;16.00;14.53;;;;;;;;;;6150733;28;20227;-73
2022/03/22 06:06:25;;;;;;;17.93;13.20;;;;;;;;;;6157555;28;20250;-73
2022/03/22 06:09:46;;;;;;;16.20;14.33;;;;;;;;;;6154987;28;20514;-73
2022/03/22 06:13:08;;;;;;;16.73;13.97;;;;;;;;;;6159110;28;20266;-73
2022/03/22 06:16:29;;;;;;;17.77;14.93;;;;;;;;;;6153712;28;20253;-74
2022/03/22 06:19:50;;;;;;;16.10;14.50;;;;;;;;;;6152591;28;20222;-74
2022/03/22 06:23:13;;;;;;;19.13;16.03;;;;;;;;;;6153018;28;20564;-73
2022/03/22 06:26:34;;;;;;;15.73;14.10;;;;;;;;;;6154638;28;20226;-74
2022/03/22 06:29:55;;;;;;;17.33;14.97;;;;;;;;;;6154032;28;20242;-73
2022/03/22 06:33:17;;;;;;;15.50;13.83;;;;;;;;;;6160738;28;20612;-75
2022/03/22 06:36:38;;;;;;;14.80;13.40;;;;;;;;;;6153635;28;20234;-74
2022/03/22 06:40:00;;;;;;;16.47;13.40;;;;;;;;;;6159351;28;20757;-74
2022/03/22 06:43:21;;;;;;;15.80;13.40;;;;;;;;;;6153700;28;20751;-73
2022/03/22 06:46:42;;;;;;;15.33;13.73;;;;;;;;;;6159979;28;22553;-73
2022/03/22 06:50:04;;;;;;;20.53;14.10;;;;;;;;;;6162072;28;20267;-70
2022/03/22 06:53:25;;;;;;;16.10;14.57;;;;;;;;;;6152672;28;20227;-72
2022/03/22 06:56:48;;;;;;;25.20;22.60;;;;;;;;;;6154623;28;20238;-74
2022/03/22 07:00:10;;;;;;;15.47;13.87;;;;;;;;;;6162937;28;20258;-72
2022/03/22 07:03:32;;;;;;;17.33;15.47;;;;;;;;;;6164122;28;20230;-72
2022/03/22 07:06:53;;;;;;;27.57;17.63;;;;;;;;;;6154021;28;20227;-74
2022/03/22 07:10:16;;;;;;;17.20;15.37;;;;;;;;;;6161266;28;20234;-75
2022/03/22 07:13:38;;;;;;;17.57;15.83;;;;;;;;;;6167203;28;20234;-74
2022/03/22 07:16:59;;;;;;;19.07;17.33;;;;;;;;;;6151407;28;20231;-73
2022/03/22 07:20:20;;;;;;;18.87;14.67;;;;;;;;;;6161405;28;20242;-74
2022/03/22 07:23:42;;;;;;;17.87;16.07;;;;;;;;;;6164134;28;20240;-73
2022/03/22 07:27:04;;;;;;;18.20;16.50;;;;;;;;;;6164599;28;20226;-74
2022/03/22 07:30:26;;;;;;;17.10;15.37;;;;;;;;;;6155580;28;20251;-74
2022/03/22 07:33:48;;;;;;;17.43;15.03;;;;;;;;;;6164647;28;20259;-73
2022/03/22 07:37:08;;;;;;;15.97;14.57;;;;;;;;;;6162877;28;20234;-72
2022/03/22 07:40:30;;;;;;;25.27;22.63;;;;;;;;;;6162576;28;20699;-70
2022/03/22 07:43:50;;;;;;;21.80;19.53;;;;;;;;;;6166888;28;20222;-72
2022/03/22 07:47:14;;;;;;;23.50;21.20;;;;;;;;;;6166516;28;20226;-73
2022/03/22 07:54:15;;;;;;;17.80;15.93;;;;;;;;;;6155331;28;20613;-75
2022/03/22 07:57:36;;;;;;;17.97;16.17;;;;;;;;;;6159987;28;20325;-73
2022/03/22 08:00:57;;;;;;;17.53;15.63;;;;;;;;;;6160697;28;20258;-70
2022/03/22 08:04:19;;;;;;;18.50;16.57;;;;;;;;;;6161268;28;20333;-74
2022/03/22 08:07:40;;;;;;;17.27;15.67;;;;;;;;;;6164425;28;20222;-73
2022/03/22 08:11:02;;;;;;;16.93;15.27;;;;;;;;;;6166990;28;20309;-73
2022/03/22 08:14:23;;;;;;;18.50;16.80;;;;;;;;;;6167208;28;20233;-70
2022/03/22 08:17:44;;;;;;;19.23;17.33;;;;;;;;;;6165563;28;20241;-71
2022/03/22 08:21:06;;;;;;;17.87;16.27;;;;;;;;;;6165545;28;20683;-74
2022/03/22 08:24:28;;;;;;;21.13;18.20;;;;;;;;;;6166323;28;20597;-70
2022/03/22 08:27:48;;;;;;;20.37;16.07;;;;;;;;;;6163565;28;20261;-73
2022/03/22 08:31:09;;;;;;;18.00;16.17;;;;;;;;;;6157511;28;20764;-72
2022/03/22 08:34:30;;;;;;;19.23;17.37;;;;;;;;;;6161953;28;20238;-72
2022/03/22 08:37:53;;;;;;;18.33;16.40;;;;;;;;;;6163459;28;20270;-70
2022/03/22 08:41:14;;;;;;;20.73;17.03;;;;;;;;;;6161023;28;20238;-71
2022/03/22 08:44:35;;;;;;;25.23;19.93;;;;;;;;;;6160791;28;20238;-71
2022/03/22 08:47:56;;;;;;;21.40;18.90;;;;;;;;;;6159952;28;20245;-70
2022/03/22 08:51:18;;;;;;;18.40;16.17;;;;;;;;;;6161967;28;20520;-77
2022/03/22 08:54:41;;;;;;;20.43;17.97;;;;;;;;;;6164976;28;20226;-73
2022/03/22 08:58:05;;;;;;;19.93;17.97;;;;;;;;;;6157992;28;20531;-73
2022/03/22 09:01:27;;;;;;;19.57;17.77;;;;;;;;;;6150940;28;20226;-72
2022/03/22 09:08:26;;;;;;;19.50;17.63;;;;;;;;;;6156944;28;20234;-73
2022/03/22 09:11:48;;;;;;;20.00;16.53;;;;;;;;;;6162100;28;20234;-71
2022/03/22 09:15:11;;;;;;;22.53;17.90;;;;;;;;;;6162535;28;20238;-72
2022/03/22 09:18:31;;;;;;;17.37;15.67;;;;;;;;;;6168096;28;20223;-76
2022/03/22 09:21:53;;;;;;;20.83;18.73;;;;;;;;;;6162206;28;20254;-76
2022/03/22 09:25:13;;;;;;;22.20;20.00;;;;;;;;;;6151245;28;20253;-75
2022/03/22 09:28:36;;;;;;;21.93;19.57;;;;;;;;;;6164871;28;20484;-72
2022/03/22 09:31:57;;;;;;;19.97;17.97;;;;;;;;;;6165559;28;20230;-73
2022/03/22 09:35:19;;;;;;;19.77;17.73;;;;;;;;;;6160343;28;20230;-74
2022/03/22 09:38:40;;;;;;;19.67;17.67;;;;;;;;;;6166621;28;20278;-73
2022/03/22 09:42:01;;;;;;;20.60;16.60;;;;;;;;;;6161272;28;20643;-71
2022/03/22 09:45:26;;;;;;;17.80;16.00;;;;;;;;;;6164344;28;20239;-73
2022/03/22 09:48:48;;;;;;;18.43;16.60;;;;;;;;;;6161680;28;20230;-75
2022/03/22 09:52:10;;;;;;;16.80;15.10;;;;;;;;;;6165053;28;20762;-76
2022/03/22 09:55:34;;;;;;;17.87;16.00;;;;;;;;;;6162598;28;20238;-72
2022/03/22 09:58:55;;;;;;;19.73;16.07;;;;;;;;;;6160846;28;20230;-72
2022/03/22 10:02:27;;;;;;;19.27;17.47;;;;;;;;;;6158619;28;20238;-70
2022/03/22 10:05:58;;;;;;;17.30;15.17;;;;;;;;;;6166482;28;20660;-73
2022/03/22 10:09:28;;;;;;;16.70;14.97;;;;;;;;;;6162643;28;20515;-69
2022/03/22 10:12:56;;;;;;;19.03;14.73;;;;;;;;;;6165927;28;20229;-72
2022/03/22 10:16:17;;;;;;;18.17;16.17;;;;;;;;;;6170746;28;20250;-75
2022/03/22 10:19:44;;;;;;;20.67;15.27;;;;;;;;;;6163251;28;20620;-72
2022/03/22 10:23:06;;;;;;;18.53;16.60;;;;;;;;;;6171780;28;20230;-72
2022/03/22 10:26:33;;;;;;;16.20;14.70;;;;;;;;;;6170653;28;21031;-73
2022/03/22 10:29:54;;;;;;;15.20;13.63;;;;;;;;;;6164268;28;20278;-72
2022/03/22 10:33:15;;;;;;;16.73;15.23;;;;;;;;;;6169657;28;20401;-72
2022/03/22 10:36:39;;;;;;;17.73;16.03;;;;;;;;;;6167425;28;20214;-76
2022/03/22 10:40:00;;;;;;;16.30;14.73;;;;;;;;;;6167137;28;20312;-74
2022/03/22 10:43:23;;;;;;;15.80;14.23;;;;;;;;;;6163577;28;20238;-71
2022/03/22 10:46:46;;;;;;;17.53;15.83;;;;;;;;;;6166969;28;20302;-73
2022/03/22 10:50:08;;;;;;;16.73;15.23;;;;;;;;;;6168331;28;20700;-73
2022/03/22 10:53:32;;;;;;;17.27;15.43;;;;;;;;;;6166308;28;20624;-77
2022/03/22 10:56:55;;;;;;;17.30;15.48;;;;;;;;;;6166140;28;20230;-72
2022/03/22 11:00:17;;;;;;;16.02;14.52;;;;;;;;;;6162464;28;20246;-75
2022/03/22 11:03:38;;;;;;;16.17;14.68;;;;;;;;;;6155157;28;20262;-75
2022/03/22 11:07:03;;;;;;;14.18;12.90;;;;;;;;;;6151580;28;20737;-74
2022/03/22 11:10:29;;;;;;;17.20;15.60;;;;;;;;;;6164795;28;20226;-75
2022/03/22 11:13:50;;;;;;;15.45;14.15;;;;;;;;;;6161458;28;20230;-74
2022/03/22 11:17:12;;;;;;;18.13;15.75;;;;;;;;;;6164070;28;20769;-75
2022/03/22 11:20:33;;;;;;;16.48;15.10;;;;;;;;;;6156482;28;20505;-74
2022/03/22 11:24:04;;;;;;;15.63;14.23;;;;;;;;;;6170512;28;20246;-74
2022/03/22 11:27:30;;;;;;;14.63;13.32;;;;;;;;;;6157287;28;20234;-75
2022/03/22 11:30:52;;;;;;;14.90;13.63;;;;;;;;;;6164686;28;20740;-74
2022/03/22 11:34:14;;;;;;;16.85;15.18;;;;;;;;;;6167020;28;20230;-74
2022/03/22 11:37:35;;;;;;;15.45;14.10;;;;;;;;;;6168658;28;20230;-75
2022/03/22 11:44:38;;;;;;;13.95;12.85;;;;;;;;;;6153141;28;20226;-73
2022/03/22 11:48:08;;;;;;;15.13;13.68;;;;;;;;;;6166846;28;20234;-73
2022/03/22 11:51:29;;;;;;;15.35;14.05;;;;;;;;;;6162650;28;20550;-74
2022/03/22 11:54:58;;;;;;;14.95;13.77;;;;;;;;;;6159695;28;21610;-73
2022/03/22 11:58:20;;;;;;;14.85;13.40;;;;;;;;;;6162316;28;20233;-71
2022/03/22 12:01:42;;;;;;;15.52;14.15;;;;;;;;;;6163057;28;20567;-71
2022/03/22 12:05:03;;;;;;;14.05;12.70;;;;;;;;;;6163000;28;20317;-69
2022/03/22 12:08:25;;;;;;;14.95;13.48;;;;;;;;;;6174023;28;20226;-72
2022/03/22 12:11:51;;;;;;;16.17;14.77;;;;;;;;;;6165002;28;20218;-70
2022/03/22 12:15:12;;;;;;;14.32;13.10;;;;;;;;;;6160761;28;20242;-72
2022/03/22 12:18:34;;;;;;;18.63;16.95;;;;;;;;;;6163823;28;20230;-70
2022/03/22 12:21:56;;;;;;;14.00;12.77;;;;;;;;;;6164868;28;20622;-71
2022/03/22 12:25:19;;;;;;;14.90;13.60;;;;;;;;;;6164494;28;20242;-71
2022/03/22 12:28:47;;;;;;;13.27;12.05;;;;;;;;;;6158603;28;20238;-73
2022/03/22 12:32:13;;;;;;;17.00;13.07;;;;;;;;;;6149710;28;20230;-72
2022/03/22 12:35:35;;;;;;;14.13;12.82;;;;;;;;;;6164452;28;20238;-70
2022/03/22 12:38:56;;;;;;;14.85;13.38;;;;;;;;;;6164639;28;20230;-69
2022/03/22 12:42:18;;;;;;;13.75;12.48;;;;;;;;;;6164443;28;25531;-71
2022/03/22 12:45:43;;;;;;;14.73;13.25;;;;;;;;;;6157737;28;20226;-71
2022/03/22 12:49:05;;;;;;;15.07;13.55;;;;;;;;;;6161727;28;20253;-72
2022/03/22 12:52:28;;;;;;;14.73;13.15;;;;;;;;;;6159881;28;21658;-72
2022/03/22 12:55:49;;;;;;;14.75;13.45;;;;;;;;;;6159800;28;20238;-73
2022/03/22 12:59:18;;;;;;;15.23;13.93;;;;;;;;;;6158484;28;20226;-73
2022/03/22 13:02:39;;;;;;;14.95;13.75;;;;;;;;;;6160698;28;20270;-71
2022/03/22 13:06:00;;;;;;;13.65;12.48;;;;;;;;;;6158909;28;20566;-72
2022/03/22 13:13:00;;;;;;;14.88;13.57;;;;;;;;;;6161855;28;20231;-71
2022/03/22 13:16:23;;;;;;;14.70;13.20;;;;;;;;;;6155717;28;20234;-70
2022/03/22 13:19:44;;;;;;;15.60;14.30;;;;;;;;;;6167184;28;20218;-70
2022/03/22 13:23:06;;;;;;;14.77;13.52;;;;;;;;;;6158298;28;20234;-70
2022/03/22 13:26:28;;;;;;;15.75;14.40;;;;;;;;;;6157903;28;20226;-75
2022/03/22 13:29:49;;;;;;;14.88;13.73;;;;;;;;;;6154336;28;20234;-70
2022/03/22 13:33:11;;;;;;;15.60;14.15;;;;;;;;;;6158793;28;20230;-73
2022/03/22 13:36:32;;;;;;;15.40;13.98;;;;;;;;;;6157782;28;20325;-71
2022/03/22 13:40:05;;;;;;;13.63;12.52;;;;;;;;;;6158645;28;20230;-70
2022/03/22 13:43:28;;;;;;;14.40;12.93;;;;;;;;;;6165308;28;20238;-70
2022/03/22 13:46:50;;;;;;;14.23;13.02;;;;;;;;;;6159803;28;20234;-73
2022/03/22 13:50:13;;;;;;;14.60;13.40;;;;;;;;;;6168089;28;20230;-72
2022/03/22 13:53:34;;;;;;;14.18;12.95;;;;;;;;;;6153471;28;20234;-71
2022/03/22 13:57:06;;;;;;;15.18;13.82;;;;;;;;;;6165034;28;20325;-74
2022/03/22 14:00:32;;;;;;;15.00;13.57;;;;;;;;;;6165080;28;20234;-73
2022/03/22 14:03:54;;;;;;;15.48;14.07;;;;;;;;;;6165027;28;20238;-72
2022/03/22 14:07:15;;;;;;;14.45;13.02;;;;;;;;;;6164369;28;20863;-74
2022/03/22 14:10:36;;;;;;;13.15;12.00;;;;;;;;;;6165229;28;20223;-75
2022/03/22 14:13:57;;;;;;;14.57;13.30;;;;;;;;;;6165965;28;20234;-73
2022/03/22 14:17:20;;;;;;;14.43;13.00;;;;;;;;;;6164637;28;20250;-70
2022/03/22 14:20:40;;;;;;;14.02;12.15;;;;;;;;;;6167390;28;20230;-70
2022/03/22 14:24:01;;;;;;;13.70;12.50;;;;;;;;;;6159032;28;20574;-74
2022/03/22 14:27:22;;;;;;;13.50;12.30;;;;;;;;;;6169040;28;20754;-72
2022/03/22 14:30:42;;;;;;;12.30;11.35;;;;;;;;;;6166209;28;20325;-74
2022/03/22 14:34:04;;;;;;;12.23;11.23;;;;;;;;;;6167720;28;20671;-72
2022/03/22 14:37:25;;;;;;;12.80;11.70;;;;;;;;;;6160966;28;20254;-70
2022/03/22 14:40:47;;;;;;;15.15;12.43;;;;;;;;;;6165351;28;20496;-73
2022/03/22 14:44:07;;;;;;;14.43;13.02;;;;;;;;;;6161384;28;20242;-73
2022/03/22 14:47:29;;;;;;;13.60;12.40;;;;;;;;;;6168151;28;20226;-74
2022/03/22 14:50:52;;;;;;;12.73;11.70;;;;;;;;;;6165927;28;20243;-75
2022/03/22 14:54:13;;;;;;;13.52;12.43;;;;;;;;;;6156905;28;20234;-81
2022/03/22 15:01:12;;;;;;;12.43;11.32;;;;;;;;;;6161190;28;20514;-79
2022/03/22 15:04:34;;;;;;;13.25;11.88;;;;;;;;;;6164443;28;20242;-76
2022/03/22 15:07:56;;;;;;;18.55;16.95;;;;;;;;;;6164570;28;20726;-76
2022/03/22 15:11:18;;;;;;;14.23;12.85;;;;;;;;;;6149028;28;20226;-76
2022/03/22 15:14:40;;;;;;;12.93;11.82;;;;;;;;;;6155096;28;20689;-74
2022/03/22 15:18:02;;;;;;;11.57;10.63;;;;;;;;;;6153103;28;20226;-74
2022/03/22 15:21:23;;;;;;;14.05;11.82;;;;;;;;;;6161158;28;20254;-76
2022/03/22 15:24:45;;;;;;;12.55;11.35;;;;;;;;;;6164484;28;20238;-77
2022/03/22 15:28:06;;;;;;;13.35;12.18;;;;;;;;;;6162048;28;20329;-76
2022/03/22 15:31:27;;;;;;;14.30;12.90;;;;;;;;;;6160952;28;20600;-76
2022/03/22 15:34:48;;;;;;;13.00;11.43;;;;;;;;;;6161267;28;20219;-76
2022/03/22 15:38:09;;;;;;;12.77;11.77;;;;;;;;;;6161331;28;20503;-74
2022/03/22 15:41:31;;;;;;;13.77;12.38;;;;;;;;;;6162476;28;20340;-78
2022/03/22 15:44:52;;;;;;;14.23;12.93;;;;;;;;;;6158682;28;20234;-76
2022/03/22 15:48:13;;;;;;;12.95;11.85;;;;;;;;;;6149637;28;20312;-75
2022/03/22 15:51:34;;;;;;;12.40;11.10;;;;;;;;;;6162520;28;20242;-76
2022/03/22 15:54:55;;;;;;;15.50;12.55;;;;;;;;;;6163390;28;20826;-75
2022/03/22 15:58:17;;;;;;;11.75;10.55;;;;;;;;;;6157641;28;20247;-75
2022/03/22 16:01:38;;;;;;;13.48;12.18;;;;;;;;;;6154987;28;20280;-76
2022/03/22 16:05:00;;;;;;;11.85;10.88;;;;;;;;;;6158742;28;20375;-76
2022/03/22 16:08:21;;;;;;;12.52;11.07;;;;;;;;;;6148146;28;20222;-75
2022/03/22 16:11:42;;;;;;;11.77;10.57;;;;;;;;;;6151967;28;20250;-75
2022/03/22 16:15:09;;;;;;;12.38;11.07;;;;;;;;;;6146810;28;20679;-76
2022/03/22 16:18:31;;;;;;;13.18;10.85;;;;;;;;;;6156978;28;20714;-74
2022/03/22 16:21:52;;;;;;;12.02;10.95;;;;;;;;;;6161744;28;20234;-75
2022/03/22 16:25:15;;;;;;;11.80;10.70;;;;;;;;;;6153751;28;20230;-76
2022/03/22 16:28:37;;;;;;;12.65;11.35;;;;;;;;;;6154563;28;20238;-77
2022/03/22 16:32:00;;;;;;;12.32;11.18;;;;;;;;;;6154751;28;20234;-78
2022/03/22 16:42:37;;;;;;;12.60;11.38;;;;;;;;;;6158407;28;20227;-76
2022/03/22 16:45:59;;;;;;;11.55;10.45;;;;;;;;;;6151811;28;20250;-76
2022/03/22 16:49:21;;;;;;;12.23;11.02;;;;;;;;;;6159480;28;20238;-76
2022/03/22 16:52:44;;;;;;;13.63;10.45;;;;;;;;;;6151550;28;20284;-75
2022/03/22 16:56:05;;;;;;;13.93;12.48;;;;;;;;;;6151761;28;20230;-73
2022/03/22 16:59:58;;;;;;;13.70;11.32;;;;;;;;;;6151511;28;20231;-75
2022/03/22 17:03:19;;;;;;;12.43;10.20;;;;;;;;;;6156146;28;20242;-75
2022/03/22 17:06:42;;;;;;;12.27;11.07;;;;;;;;;;6157748;28;20226;-75
2022/03/22 17:10:04;;;;;;;14.38;12.93;;;;;;;;;;6160789;28;20231;-75
2022/03/22 17:13:25;;;;;;;14.27;11.93;;;;;;;;;;6161556;28;20222;-76
2022/03/22 17:16:47;;;;;;;12.95;11.85;;;;;;;;;;6153643;28;20235;-73
2022/03/22 17:20:09;;;;;;;13.20;11.82;;;;;;;;;;6166087;28;20222;-75
2022/03/22 17:23:33;;;;;;;13.82;12.40;;;;;;;;;;6165262;28;20238;-77
2022/03/22 17:26:54;;;;;;;13.35;12.25;;;;;;;;;;6163159;28;20533;-75
2022/03/22 17:30:15;;;;;;;12.73;11.57;;;;;;;;;;6152800;28;20242;-74
2022/03/22 17:33:36;;;;;;;15.38;13.93;;;;;;;;;;6153503;28;20258;-75
2022/03/22 17:36:57;;;;;;;14.18;12.98;;;;;;;;;;6155002;28;21077;-75
2022/03/22 17:40:19;;;;;;;16.48;14.32;;;;;;;;;;6165091;28;20246;-75
2022/03/22 17:43:40;;;;;;;22.75;20.55;;;;;;;;;;6161787;28;20222;-75
2022/03/22 17:47:02;;;;;;;32.47;29.45;;;;;;;;;;6156742;28;20277;-74
2022/03/22 17:50:23;;;;;;;32.88;29.63;;;;;;;;;;6157953;28;20230;-74
2022/03/22 17:53:44;;;;;;;24.63;22.13;;;;;;;;;;6155700;28;20230;-76
2022/03/22 17:57:07;;;;;;;19.50;17.58;;;;;;;;;;6165696;28;20238;-74
2022/03/22 18:00:28;;;;;;;27.35;24.60;;;;;;;;;;6158714;28;20349;-75
2022/03/22 18:03:49;;;;;;;25.05;22.60;;;;;;;;;;6164320;28;20230;-76
2022/03/22 18:07:09;;;;;;;30.70;27.43;;;;;;;;;;6159407;28;20231;-73
2022/03/22 18:10:31;;;;;;;49.10;44.33;;;;;;;;;;6154005;28;20234;-76
2022/03/22 18:13:53;;;;;;;44.88;40.17;;;;;;;;;;6160447;28;20238;-71
2022/03/22 18:17:13;;;;;;;57.00;51.57;;;;;;;;;;6154591;28;20238;-73
2022/03/22 18:20:35;;;;;;;41.20;37.17;;;;;;;;;;6161775;28;20261;-72
2022/03/22 18:23:57;;;;;;;41.77;37.63;;;;;;;;;;6158698;28;20477;-74
2022/03/22 18:27:18;;;;;;;20.70;18.00;;;;;;;;;;6155568;28;20234;-74
2022/03/22 18:30:41;;;;;;;15.37;13.83;;;;;;;;;;6157935;28;20614;-71
2022/03/22 18:34:11;;;;;;;19.42;17.63;;;;;;;;;;6163036;28;20238;-84
2022/03/22 18:37:32;;;;;;;35.13;31.77;;;;;;;;;;6169245;28;20325;-72
2022/03/22 18:40:53;;;;;;;34.80;31.30;;;;;;;;;;6170837;28;20230;-77
2022/03/22 18:44:14;;;;;;;27.07;24.43;;;;;;;;;;6172171;28;20234;-78
2022/03/22 18:47:36;;;;;;;31.03;27.77;;;;;;;;;;6167648;28;20223;-79
2022/03/22 18:50:57;;;;;;;35.20;31.63;;;;;;;;;;6169833;28;20250;-78
2022/03/22 18:54:18;;;;;;;40.33;36.13;;;;;;;;;;6164089;28;20257;-78
2022/03/22 18:57:39;;;;;;;33.57;30.20;;;;;;;;;;6164419;28;20238;-79
2022/03/22 19:01:00;;;;;;;35.27;31.23;;;;;;;;;;6162080;28;20223;-71
2022/03/22 19:04:22;;;;;;;33.67;30.17;;;;;;;;;;6164775;28;20230;-74
2022/03/22 19:07:44;;;;;;;24.47;21.73;;;;;;;;;;6168076;28;20218;-74
2022/03/22 19:11:09;;;;;;;34.50;31.00;;;;;;;;;;6157609;28;20235;-84
2022/03/22 19:14:29;;;;;;;33.50;27.67;;;;;;;;;;6169274;28;20239;-81
2022/03/22 19:17:52;;;;;;;23.60;19.50;;;;;;;;;;6163905;28;20230;-72
2022/03/22 19:21:15;;;;;;;18.53;16.63;;;;;;;;;;6163677;28;20226;-83
2022/03/22 19:24:36;;;;;;;17.20;15.40;;;;;;;;;;6167113;28;20230;-72
2022/03/22 19:27:57;;;;;;;36.60;30.77;;;;;;;;;;6169578;28;20639;-76
2022/03/22 19:34:56;;;;;;;48.93;43.70;;;;;;;;;;6153196;28;21560;-76
2022/03/22 19:38:23;;;;;;;27.23;24.63;;;;;;;;;;6171664;28;20242;-75
2022/03/22 19:41:44;;;;;;;51.87;46.33;;;;;;;;;;6164224;28;20234;-77
2022/03/22 19:45:06;;;;;;;55.30;49.60;;;;;;;;;;6164822;28;20238;-79
2022/03/22 19:48:27;;;;;;;49.17;44.13;;;;;;;;;;6168297;28;20604;-73
2022/03/22 19:51:47;;;;;;;31.77;28.50;;;;;;;;;;6159953;28;20242;-73
2022/03/22 19:55:12;;;;;;;39.27;35.17;;;;;;;;;;6160688;28;20923;-73
2022/03/22 19:58:33;;;;;;;51.40;45.87;;;;;;;;;;6167511;28;20227;-79
2022/03/22 20:01:54;;;;;;;38.10;33.90;;;;;;;;;;6158761;28;20250;-73
2022/03/22 20:05:15;;;;;;;26.73;23.73;;;;;;;;;;6167460;28;20230;-76
2022/03/22 20:08:37;;;;;;;21.73;19.43;;;;;;;;;;6164217;28;20218;-74
2022/03/22 20:11:59;;;;;;;24.10;19.63;;;;;;;;;;6167064;28;20231;-76
2022/03/22 20:15:21;;;;;;;35.30;31.50;;;;;;;;;;6160425;28;20548;-75
2022/03/22 20:18:42;;;;;;;29.70;26.73;;;;;;;;;;6158839;28;20230;-71
2022/03/22 20:22:04;;;;;;;24.40;21.00;;;;;;;;;;6161009;28;20505;-70
2022/03/22 20:25:25;;;;;;;30.73;27.67;;;;;;;;;;6164047;28;20238;-70